EGHI/SOU METAR and TAF weather

Enter ICAO airport designator
Station Type Date Time Source
EGHI METAR 2020/04/05 18:50 UTC NOAA

EGHI 051850Z 14006KT 100V180 9999 FEW020 16/05 Q1009


Station Type Date Time Source
EGHI Decoded METAR 2020/04/05 18:50 UTC NOAA

Southampton / Weather Centre, United Kingdom (EGHI) 50-54N 001-24W 0M
Apr 05, 2020 - 02:50 PM EDT / 2020.04.05 1850 UTC
Wind: from the SE (140 degrees) at 7 MPH (6 KT) (direction variable):0
Visibility: greater than 7 mile(s):0
Sky conditions: mostly clear
Temperature: 60 F (16 C)
Dew Point: 41 F (5 C)
Relative Humidity: 47%
Pressure (altimeter): 29.80 in. Hg (1009 hPa)
ob: EGHI 051850Z 14006KT 100V180 9999 FEW020 16/05 Q1009
cycle: 19

Station Type Date Time Source
EGHI TAF 2020/02/21 21:54 UTC NOAA

TAF EGHI 210345Z 2021/2123 CNL

Example: see airport list